Elbow Lake, Minnesota
Current Conditions -  °F | °C
As of 9:56 AM on Friday 24 Oct 2014 (Local Time) from KY63 Reporting Station
Clear Clear  
Wind Chill: 46°   Ceiling: Unl
Heat Index: 49°   Visibility: 10mi
Dew Point: 46°   Wind: 7mph
Humidity: 89%   Direction: 190°S
Pressure: 29.84"   Gusts: NA
Location:  45.99°N, 95.98°W
Report Text: KY63 241456Z AUTO 19006KT 10SM CLR 09/08 A2984 RMK AO2 T00940077
Loading
Personal Weather Stations






























Interactive Weather Map New forecast layout! Learn more

10-Day Weather Forecast

Advertisements
Track Severe Weather on mobile